createdAt,value
2018-09-12T00:01:27.745Z,11.90
2018-09-12T00:03:56.174Z,11.80
2018-09-12T00:06:24.761Z,11.80
2018-09-12T00:08:53.155Z,11.80
2018-09-12T00:11:21.474Z,11.90
2018-09-12T00:13:50.104Z,11.80
2018-09-12T00:16:18.531Z,11.70
2018-09-12T00:18:48.086Z,11.70
2018-09-12T00:21:16.594Z,11.70
2018-09-12T00:23:45.027Z,11.60
2018-09-12T00:26:13.417Z,11.60
2018-09-12T00:28:42.050Z,11.60
2018-09-12T00:31:11.471Z,11.50
2018-09-12T00:33:39.819Z,11.50
2018-09-12T00:36:09.133Z,11.50
2018-09-12T00:38:40.276Z,11.40
2018-09-12T00:41:17.468Z,11.30
2018-09-12T00:43:50.347Z,11.20
2018-09-12T00:46:18.885Z,11.20
2018-09-12T00:48:47.194Z,11.10
2018-09-12T00:51:15.576Z,11.10
2018-09-12T00:53:44.367Z,11.10
2018-09-12T00:56:13.431Z,11.00
2018-09-12T00:58:41.849Z,11.00
2018-09-12T01:01:10.543Z,11.00
2018-09-12T01:03:38.823Z,11.00
2018-09-12T01:06:07.584Z,11.00
2018-09-12T01:08:53.852Z,11.00
2018-09-12T01:11:24.320Z,10.90
2018-09-12T01:13:53.532Z,11.00
2018-09-12T01:16:21.757Z,11.00
2018-09-12T01:18:50.354Z,10.90
2018-09-12T01:21:18.803Z,10.80
2018-09-12T01:23:48.457Z,10.80
2018-09-12T01:26:16.947Z,10.80
2018-09-12T01:28:45.304Z,10.80
2018-09-12T01:31:14.201Z,10.90
2018-09-12T01:33:42.614Z,10.90
2018-09-12T01:36:10.868Z,10.90
2018-09-12T01:38:39.372Z,10.90
2018-09-12T01:41:10.062Z,10.80
2018-09-12T01:43:38.435Z,10.80
2018-09-12T01:46:06.800Z,10.70
2018-09-12T01:48:35.031Z,10.70
2018-09-12T01:51:03.435Z,10.80
2018-09-12T01:53:31.658Z,10.90
2018-09-12T01:56:00.122Z,10.90
2018-09-12T01:58:28.502Z,10.90
2018-09-12T02:00:57.027Z,10.80
2018-09-12T02:03:25.401Z,10.70
2018-09-12T02:05:55.464Z,10.70
2018-09-12T02:08:23.885Z,10.60
2018-09-12T02:10:52.665Z,10.50
2018-09-12T02:13:21.459Z,10.50
2018-09-12T02:15:50.730Z,10.50
2018-09-12T02:18:19.021Z,10.50
2018-09-12T02:20:47.328Z,10.40
2018-09-12T02:23:15.825Z,10.40
2018-09-12T02:25:44.353Z,10.30
2018-09-12T02:28:12.693Z,10.20
2018-09-12T02:30:41.320Z,10.10
2018-09-12T02:33:09.918Z,10.00
2018-09-12T02:38:32.529Z,9.80
2018-09-12T02:41:01.238Z,9.80
2018-09-12T02:43:29.561Z,9.70
2018-09-12T02:45:57.839Z,9.70
2018-09-12T02:48:26.168Z,9.70
2018-09-12T02:50:54.753Z,9.60
2018-09-12T02:53:23.179Z,9.60
2018-09-12T02:55:51.446Z,9.60
2018-09-12T02:58:19.915Z,9.60
2018-09-12T03:00:48.462Z,9.60
2018-09-12T03:06:09.630Z,9.60
2018-09-12T03:08:38.102Z,9.60
2018-09-12T03:11:06.381Z,9.60
2018-09-12T03:13:34.706Z,9.70
2018-09-12T03:16:03.441Z,9.70
2018-09-12T03:18:33.563Z,9.70
2018-09-12T03:21:02.067Z,9.70
2018-09-12T03:23:30.484Z,9.70
2018-09-12T03:25:59.887Z,9.70
2018-09-12T03:28:28.764Z,9.60
2018-09-12T03:30:57.115Z,9.60
2018-09-12T03:33:25.559Z,9.50
2018-09-12T03:35:53.946Z,9.40
2018-09-12T03:38:22.502Z,9.30
2018-09-12T03:40:50.988Z,9.30
2018-09-12T03:43:19.411Z,9.20
2018-09-12T03:45:48.084Z,9.20
2018-09-12T03:48:16.476Z,9.10
2018-09-12T03:50:48.920Z,9.10
2018-09-12T03:53:17.322Z,9.10
2018-09-12T03:55:46.321Z,9.10
2018-09-12T03:58:14.789Z,9.10
2018-09-12T04:00:43.154Z,9.00
2018-09-12T04:03:11.722Z,9.00
2018-09-12T04:05:40.727Z,9.00
2018-09-12T04:08:09.230Z,9.00
2018-09-12T04:10:37.812Z,9.00
2018-09-12T04:13:06.309Z,9.00
2018-09-12T04:15:34.834Z,9.00
2018-09-12T04:18:03.261Z,9.00
2018-09-12T04:20:31.848Z,9.00
2018-09-12T04:23:00.443Z,9.00
2018-09-12T04:25:29.122Z,8.90
2018-09-12T04:27:57.530Z,9.00
2018-09-12T04:30:26.024Z,9.00
2018-09-12T04:32:54.667Z,9.00
2018-09-12T04:35:23.423Z,8.90
2018-09-12T04:37:51.996Z,8.90
2018-09-12T04:40:20.450Z,9.00
2018-09-12T04:42:48.831Z,9.10
2018-09-12T04:45:17.274Z,9.10
2018-09-12T04:47:45.739Z,9.10
2018-09-12T04:50:14.218Z,9.00
2018-09-12T04:52:42.597Z,9.00
2018-09-12T04:55:12.912Z,9.00
2018-09-12T04:57:41.648Z,9.00
2018-09-12T05:00:10.879Z,9.00
2018-09-12T05:02:39.505Z,8.90
2018-09-12T05:05:07.914Z,8.90
2018-09-12T05:10:48.164Z,9.00
2018-09-12T05:13:24.678Z,9.10
2018-09-12T05:15:58.925Z,9.10
2018-09-12T05:40:05.229Z,9.90
2018-09-12T05:42:49.298Z,10.00
2018-09-12T05:45:17.926Z,10.00
2018-09-12T05:47:46.351Z,10.20
2018-09-12T05:50:14.967Z,10.30
2018-09-12T05:52:43.774Z,10.50
2018-09-12T05:55:12.550Z,10.60
2018-09-12T05:57:41.175Z,10.80
2018-09-12T06:00:09.827Z,11.00
2018-09-12T06:02:38.604Z,11.50
2018-09-12T06:05:07.226Z,12.70
2018-09-12T06:07:35.968Z,14.30
2018-09-12T06:10:04.612Z,15.90
2018-09-12T06:12:33.051Z,17.40
2018-09-12T06:15:01.609Z,18.50
2018-09-12T06:17:30.553Z,19.60
2018-09-12T06:19:59.100Z,20.20
2018-09-12T06:22:27.755Z,20.80
2018-09-12T06:24:56.274Z,21.30
2018-09-12T06:27:24.870Z,21.80
2018-09-12T06:29:53.422Z,22.10
2018-09-12T06:32:22.252Z,22.60
2018-09-12T06:34:50.923Z,23.10
2018-09-12T06:37:21.458Z,23.50
2018-09-12T06:40:30.406Z,24.00
2018-09-12T06:42:59.214Z,24.30
2018-09-12T06:48:10.386Z,24.80
2018-09-12T06:50:38.589Z,25.00
2018-09-12T06:53:06.791Z,25.30
2018-09-12T06:55:34.950Z,25.40
2018-09-12T06:58:03.135Z,25.20
2018-09-12T07:00:32.172Z,25.30
2018-09-12T07:03:00.286Z,25.20
2018-09-12T07:05:29.106Z,25.00
2018-09-12T07:07:57.343Z,24.80
2018-09-12T07:10:25.542Z,24.60
2018-09-12T07:12:53.738Z,24.10
2018-09-12T07:15:22.762Z,24.00
2018-09-12T07:17:51.154Z,24.30
2018-09-12T07:20:19.389Z,24.60
2018-09-12T07:22:48.439Z,24.80
2018-09-12T07:25:17.622Z,25.10
2018-09-12T07:27:46.277Z,25.50
2018-09-12T07:30:14.478Z,25.30
2018-09-12T07:32:42.622Z,24.90
2018-09-12T07:35:11.308Z,24.90
2018-09-12T07:37:39.506Z,25.00
2018-09-12T07:40:07.771Z,24.80
2018-09-12T07:42:35.974Z,24.40
2018-09-12T07:45:04.266Z,24.20
2018-09-12T07:47:32.457Z,23.60
2018-09-12T07:50:00.638Z,23.40
2018-09-12T07:52:28.774Z,23.50
2018-09-12T07:54:56.954Z,23.60
2018-09-12T07:57:25.121Z,23.50
2018-09-12T07:59:53.294Z,23.80
2018-09-12T08:02:21.470Z,24.10
2018-09-12T08:04:49.646Z,24.50
2018-09-12T08:07:18.066Z,24.70
2018-09-12T08:09:46.509Z,24.60
2018-09-12T08:12:14.688Z,24.30
2018-09-12T08:14:42.850Z,24.70
2018-09-12T08:17:11.052Z,24.90
2018-09-12T08:19:39.218Z,25.30
2018-09-12T08:22:07.423Z,25.40
2018-09-12T08:24:35.662Z,25.50
2018-09-12T08:27:03.865Z,25.70
2018-09-12T08:29:32.066Z,26.20
2018-09-12T08:32:00.247Z,26.20
2018-09-12T08:34:28.445Z,26.60
2018-09-12T08:36:56.610Z,26.90
2018-09-12T08:39:26.226Z,27.00
2018-09-12T08:41:54.410Z,27.30
2018-09-12T08:44:22.802Z,26.90
2018-09-12T08:46:50.999Z,27.10
2018-09-12T08:49:19.209Z,27.20
2018-09-12T08:51:47.722Z,27.40
2018-09-12T08:54:16.087Z,27.20
2018-09-12T08:56:44.341Z,27.30
2018-09-12T08:59:14.639Z,27.10
2018-09-12T09:01:42.951Z,27.00
2018-09-12T09:04:11.843Z,27.00
2018-09-12T09:06:39.971Z,26.80
2018-09-12T09:09:09.631Z,26.90
2018-09-12T09:11:37.926Z,27.10
2018-09-12T09:14:06.168Z,27.30
2018-09-12T09:16:34.393Z,27.20
2018-09-12T09:19:03.115Z,27.20
2018-09-12T09:21:33.150Z,28.00
2018-09-12T09:24:02.055Z,28.40
2018-09-12T09:26:30.346Z,28.40
2018-09-12T09:28:58.591Z,28.40
2018-09-12T09:31:26.769Z,28.50
2018-09-12T09:33:55.078Z,28.50
2018-09-12T09:36:23.281Z,28.50
2018-09-12T09:38:52.334Z,28.40
2018-09-12T09:41:20.502Z,29.00
2018-09-12T09:43:48.701Z,29.20
2018-09-12T09:46:16.893Z,29.20
2018-09-12T09:48:45.487Z,29.40
2018-09-12T09:51:13.687Z,29.60
2018-09-12T09:53:41.864Z,29.50
2018-09-12T09:56:10.296Z,29.60
2018-09-12T09:58:38.897Z,29.60
2018-09-12T10:01:12.498Z,29.90
2018-09-12T10:03:45.894Z,30.20
2018-09-12T10:06:19.686Z,30.20
2018-09-12T10:08:57.125Z,30.40
2018-09-12T10:11:25.609Z,30.90
2018-09-12T10:13:53.799Z,30.90
2018-09-12T10:16:22.266Z,30.80
2018-09-12T10:18:50.885Z,30.50
2018-09-12T10:21:19.698Z,30.60
2018-09-12T10:23:47.893Z,31.30
2018-09-12T10:26:16.103Z,31.10
2018-09-12T10:28:44.282Z,31.20
2018-09-12T10:31:13.090Z,32.10
2018-09-12T10:33:41.294Z,32.60
2018-09-12T10:36:09.914Z,33.40
2018-09-12T10:38:38.146Z,33.60
2018-09-12T10:41:06.431Z,33.40
2018-09-12T10:43:34.486Z,33.60
2018-09-12T10:46:02.677Z,34.00
2018-09-12T10:48:30.861Z,34.50
2018-09-12T10:50:59.064Z,34.50
2018-09-12T10:53:27.296Z,34.70
2018-09-12T10:55:55.498Z,34.00
2018-09-12T10:58:23.672Z,34.00
2018-09-12T11:00:51.850Z,33.90
2018-09-12T11:03:20.071Z,34.30
2018-09-12T11:05:48.283Z,34.90
2018-09-12T11:08:16.473Z,35.30
2018-09-12T11:10:44.698Z,35.40
2018-09-12T11:13:12.921Z,35.00
2018-09-12T11:15:41.405Z,34.90
2018-09-12T11:18:09.539Z,34.80
2018-09-12T11:20:37.753Z,34.80
2018-09-12T11:23:06.083Z,34.70
2018-09-12T11:25:34.259Z,34.70
2018-09-12T11:28:02.439Z,34.20
2018-09-12T11:30:31.110Z,34.40
2018-09-12T11:32:59.339Z,33.70
2018-09-12T11:35:27.639Z,33.60
2018-09-12T11:37:55.874Z,34.30
2018-09-12T11:40:24.078Z,34.20
2018-09-12T11:42:52.216Z,34.30
2018-09-12T11:45:20.395Z,34.10
2018-09-12T11:47:48.638Z,34.50
2018-09-12T11:50:16.833Z,34.90
2018-09-12T11:52:45.344Z,34.90
2018-09-12T11:55:13.557Z,34.90
2018-09-12T11:57:41.723Z,34.80
2018-09-12T12:00:09.969Z,34.70
2018-09-12T12:02:38.223Z,34.70
2018-09-12T12:05:06.450Z,34.50
2018-09-12T12:07:34.591Z,34.40
2018-09-12T12:10:02.883Z,34.40
2018-09-12T12:12:31.042Z,34.40
2018-09-12T12:14:59.254Z,34.10
2018-09-12T12:17:27.483Z,34.20
2018-09-12T12:19:55.683Z,34.40
2018-09-12T12:22:23.890Z,34.50
2018-09-12T12:24:52.107Z,33.90
2018-09-12T12:27:20.339Z,33.80
2018-09-12T12:29:48.632Z,34.20
2018-09-12T12:32:16.818Z,34.10
2018-09-12T12:34:45.043Z,33.70
2018-09-12T12:37:15.145Z,34.10
2018-09-12T12:39:43.398Z,34.20
2018-09-12T12:42:11.745Z,34.60
2018-09-12T12:44:40.576Z,34.80
2018-09-12T12:47:08.739Z,34.30
2018-09-12T12:49:37.670Z,34.00
2018-09-12T12:52:06.070Z,33.60
2018-09-12T12:54:34.563Z,33.70
2018-09-12T12:57:02.993Z,34.00
2018-09-12T12:59:33.717Z,34.40
2018-09-12T13:02:02.394Z,34.20
2018-09-12T13:04:31.182Z,34.70
2018-09-12T13:06:59.322Z,34.90
2018-09-12T13:09:27.708Z,34.70
2018-09-12T13:11:59.426Z,34.80
2018-09-12T13:14:27.686Z,34.80
2018-09-12T13:16:55.826Z,34.60
2018-09-12T13:19:24.022Z,34.70
2018-09-12T13:21:52.799Z,34.80
2018-09-12T13:24:20.885Z,35.50
2018-09-12T13:26:49.019Z,36.10
2018-09-12T13:29:17.201Z,35.30
2018-09-12T13:31:45.336Z,35.00
2018-09-12T13:34:14.289Z,34.20
2018-09-12T13:36:42.741Z,34.20
2018-09-12T13:39:13.369Z,35.00
2018-09-12T13:41:42.145Z,35.60
2018-09-12T13:44:11.015Z,36.30
2018-09-12T13:46:39.697Z,36.80
2018-09-12T13:49:08.093Z,37.30
2018-09-12T13:51:37.114Z,37.00
2018-09-12T13:54:05.400Z,36.60
2018-09-12T13:56:34.128Z,36.50
2018-09-12T13:59:02.699Z,36.20
2018-09-12T14:01:31.247Z,36.00
2018-09-12T14:03:59.499Z,35.80
2018-09-12T14:06:27.722Z,36.40
2018-09-12T14:08:55.966Z,36.70
2018-09-12T14:11:24.454Z,36.80
2018-09-12T14:13:52.646Z,36.90
2018-09-12T14:16:20.793Z,37.20
2018-09-12T14:18:48.938Z,37.50
2018-09-12T14:21:17.145Z,38.00
2018-09-12T14:23:45.729Z,38.60
2018-09-12T14:26:13.911Z,37.90
2018-09-12T14:28:42.113Z,37.50
2018-09-12T14:31:10.297Z,37.30
2018-09-12T14:33:38.770Z,37.80
2018-09-12T14:36:07.070Z,37.60
2018-09-12T14:38:36.089Z,37.40
2018-09-12T14:41:04.282Z,37.50
2018-09-12T14:43:32.629Z,37.40
2018-09-12T14:46:00.778Z,36.90
2018-09-12T14:48:28.922Z,37.00
2018-09-12T14:50:57.111Z,37.20
2018-09-12T14:53:25.391Z,37.10
2018-09-12T14:55:53.565Z,36.90
2018-09-12T14:58:22.332Z,36.90
2018-09-12T15:00:54.523Z,37.20
2018-09-12T15:03:23.302Z,37.50
2018-09-12T15:05:51.798Z,37.50
2018-09-12T15:08:20.534Z,36.70
2018-09-12T15:10:50.196Z,36.30
2018-09-12T15:13:18.376Z,36.60
2018-09-12T15:15:46.558Z,36.20
2018-09-12T15:18:15.421Z,36.20
2018-09-12T15:20:43.602Z,36.40
2018-09-12T15:23:12.284Z,37.00
2018-09-12T15:25:40.442Z,37.00
2018-09-12T15:28:08.638Z,36.90
2018-09-12T15:30:36.845Z,36.50
2018-09-12T15:33:05.070Z,35.50
2018-09-12T15:35:33.362Z,35.30
2018-09-12T15:38:01.487Z,35.10
2018-09-12T15:40:29.679Z,35.00
2018-09-12T15:42:58.191Z,34.80
2018-09-12T15:45:26.362Z,34.80
2018-09-12T15:47:54.654Z,34.80
2018-09-12T15:50:24.026Z,34.90
2018-09-12T15:52:52.526Z,35.20
2018-09-12T15:55:20.827Z,35.10
2018-09-12T15:57:49.353Z,35.30
2018-09-12T16:00:17.459Z,35.30
2018-09-12T16:02:45.645Z,35.20
2018-09-12T16:05:14.022Z,35.20
2018-09-12T16:07:42.454Z,34.80
2018-09-12T16:10:10.751Z,34.60
2018-09-12T16:12:39.002Z,34.50
2018-09-12T16:15:07.202Z,34.20
2018-09-12T16:17:35.368Z,34.00
2018-09-12T16:20:03.832Z,33.50
2018-09-12T16:22:32.234Z,33.40
2018-09-12T16:25:00.426Z,33.20
2018-09-12T16:27:28.822Z,33.20
2018-09-12T16:29:57.106Z,33.20
2018-09-12T16:32:25.287Z,32.90
2018-09-12T16:34:53.614Z,32.60
2018-09-12T16:37:21.874Z,32.40
2018-09-12T16:39:50.388Z,32.20
2018-09-12T16:42:18.948Z,32.10
2018-09-12T16:44:47.117Z,32.10
2018-09-12T16:47:15.551Z,32.00
2018-09-12T16:49:43.762Z,32.00
2018-09-12T16:52:12.313Z,31.40
2018-09-12T16:54:40.678Z,30.60
2018-09-12T16:57:08.938Z,29.70
2018-09-12T16:59:37.215Z,29.00
2018-09-12T17:02:06.230Z,28.40
2018-09-12T17:04:34.488Z,28.00
2018-09-12T17:07:02.797Z,27.70
2018-09-12T17:09:30.998Z,27.40
2018-09-12T17:11:59.214Z,27.10
2018-09-12T17:14:28.257Z,26.90
2018-09-12T17:16:56.437Z,26.70
2018-09-12T17:19:24.734Z,26.50
2018-09-12T17:21:52.963Z,26.40
2018-09-12T17:24:21.166Z,26.20
2018-09-12T17:26:49.374Z,25.90
2018-09-12T17:29:17.567Z,25.70
2018-09-12T17:31:45.729Z,25.60
2018-09-12T17:34:13.967Z,25.30
2018-09-12T17:36:43.105Z,25.10
2018-09-12T17:39:11.594Z,24.80
2018-09-12T17:41:39.857Z,24.60
2018-09-12T17:44:08.423Z,24.30
2018-09-12T17:46:36.540Z,24.10
2018-09-12T17:49:04.814Z,23.80
2018-09-12T17:51:33.063Z,23.70
2018-09-12T17:54:01.301Z,23.50
2018-09-12T17:56:29.534Z,23.40
2018-09-12T17:58:57.714Z,23.20
2018-09-12T18:01:25.949Z,23.00
2018-09-12T18:03:54.123Z,22.80
2018-09-12T18:06:23.327Z,22.60
2018-09-12T18:08:51.491Z,22.40
2018-09-12T18:11:19.768Z,22.20
2018-09-12T18:13:47.970Z,22.10
2018-09-12T18:16:16.114Z,21.90
2018-09-12T18:18:44.272Z,21.80
2018-09-12T18:21:12.490Z,21.70
2018-09-12T18:23:40.749Z,21.50
2018-09-12T18:26:08.918Z,21.30
2018-09-12T18:28:37.115Z,21.20
2018-09-12T18:31:05.599Z,21.00
2018-09-12T18:33:33.775Z,20.90
2018-09-12T18:36:02.233Z,20.80
2018-09-12T18:38:30.384Z,20.70
2018-09-12T18:40:58.583Z,20.50
2018-09-12T18:43:26.798Z,20.40
2018-09-12T18:45:55.030Z,20.20
2018-09-12T18:48:23.429Z,20.10
2018-09-12T18:50:52.199Z,20.20
2018-09-12T18:53:20.429Z,20.80
2018-09-12T18:55:48.663Z,21.20
2018-09-12T18:58:16.868Z,21.50
2018-09-12T19:00:45.107Z,21.80
2018-09-12T19:03:13.250Z,21.90
2018-09-12T19:05:41.444Z,21.90
2018-09-12T19:08:09.602Z,22.00
2018-09-12T19:10:37.833Z,22.20
2018-09-12T19:13:06.025Z,22.30
2018-09-12T19:15:34.226Z,22.40
2018-09-12T19:18:02.768Z,22.40
2018-09-12T19:20:30.942Z,22.40
2018-09-12T19:22:59.146Z,22.40
2018-09-12T19:25:27.346Z,22.40
2018-09-12T19:27:55.682Z,22.50
2018-09-12T19:30:23.866Z,22.60
2018-09-12T19:32:52.038Z,22.50
2018-09-12T19:35:21.165Z,22.50
2018-09-12T19:37:49.362Z,22.40
2018-09-12T19:40:17.539Z,22.40
2018-09-12T19:42:45.758Z,22.30
2018-09-12T19:45:13.960Z,22.30
2018-09-12T19:47:42.119Z,22.20
2018-09-12T19:50:10.317Z,22.10
2018-09-12T19:52:38.509Z,22.00
2018-09-12T19:55:07.202Z,21.90
2018-09-12T19:57:35.357Z,21.90
2018-09-12T20:00:03.724Z,21.80
2018-09-12T20:02:33.974Z,21.80
2018-09-12T20:05:02.120Z,21.80
2018-09-12T20:07:31.548Z,21.70
2018-09-12T20:10:00.118Z,21.80
2018-09-12T20:12:28.346Z,21.70
2018-09-12T20:14:56.537Z,21.70
2018-09-12T20:17:24.718Z,21.70
2018-09-12T20:19:52.969Z,21.60
2018-09-12T20:22:21.321Z,21.60
2018-09-12T20:24:49.617Z,21.40
2018-09-12T20:27:18.393Z,21.40
2018-09-12T20:29:46.990Z,21.20
2018-09-12T20:32:15.482Z,21.00
2018-09-12T20:34:43.743Z,21.00
2018-09-12T20:37:12.582Z,20.90
2018-09-12T20:39:41.618Z,20.80
2018-09-12T20:42:09.797Z,20.70
2018-09-12T20:44:38.672Z,20.50
2018-09-12T20:47:06.841Z,20.50
2018-09-12T20:49:35.034Z,20.40
2018-09-12T20:52:03.333Z,20.50
2018-09-12T20:54:31.714Z,20.40
2018-09-12T20:56:59.932Z,20.20
2018-09-12T20:59:28.124Z,20.00
2018-09-12T21:01:56.297Z,19.90
2018-09-12T21:04:24.521Z,19.90
2018-09-12T21:06:52.759Z,20.00
2018-09-12T21:09:21.246Z,20.00
2018-09-12T21:11:49.438Z,20.20
2018-09-12T21:14:17.623Z,20.20
2018-09-12T21:16:45.775Z,20.20
2018-09-12T21:19:13.947Z,20.30
2018-09-12T21:21:42.114Z,20.30
2018-09-12T21:24:12.014Z,20.30
2018-09-12T21:26:40.185Z,20.30
2018-09-12T21:29:08.457Z,20.30
2018-09-12T21:31:36.659Z,20.30
2018-09-12T21:34:04.926Z,20.30
2018-09-12T21:36:33.160Z,20.20
2018-09-12T21:39:01.421Z,20.10
2018-09-12T21:41:29.704Z,20.00
2018-09-12T21:43:57.894Z,19.80
2018-09-12T21:46:26.090Z,19.70
2018-09-12T21:48:54.348Z,19.70
2018-09-12T21:51:22.845Z,19.60
2018-09-12T21:53:51.041Z,19.60
2018-09-12T21:56:19.225Z,19.50
2018-09-12T21:58:47.376Z,19.40
2018-09-12T22:01:18.210Z,19.40
2018-09-12T22:03:46.421Z,19.30
2018-09-12T22:06:14.622Z,19.30
2018-09-12T22:08:44.670Z,19.20
2018-09-12T22:11:12.844Z,19.10
2018-09-12T22:13:41.126Z,19.00
2018-09-12T22:16:09.293Z,19.00
2018-09-12T22:18:37.569Z,18.90
2018-09-12T22:21:05.794Z,18.80
2018-09-12T22:23:34.104Z,18.80
2018-09-12T22:26:02.278Z,18.70
2018-09-12T22:28:30.450Z,18.60
2018-09-12T22:30:58.656Z,18.50
2018-09-12T22:33:26.869Z,18.50
2018-09-12T22:35:55.076Z,18.40
2018-09-12T22:38:23.279Z,18.40
2018-09-12T22:40:51.440Z,18.20
2018-09-12T22:43:20.357Z,18.10
2018-09-12T22:45:48.534Z,18.00
2018-09-12T22:48:16.755Z,17.90
2018-09-12T22:50:44.950Z,17.90
2018-09-12T22:53:13.166Z,17.80
2018-09-12T22:55:41.357Z,17.80
2018-09-12T22:58:09.951Z,17.70
2018-09-12T23:00:38.164Z,17.70
2018-09-12T23:03:06.340Z,17.70
2018-09-12T23:05:34.502Z,17.60
2018-09-12T23:08:02.796Z,17.60
2018-09-12T23:10:31.351Z,17.60
2018-09-12T23:12:59.575Z,17.50
2018-09-12T23:15:27.788Z,17.50
2018-09-12T23:17:56.613Z,17.50
2018-09-12T23:20:25.505Z,17.40
2018-09-12T23:22:53.706Z,17.30
2018-09-12T23:25:21.888Z,17.30
2018-09-12T23:27:50.127Z,17.30
2018-09-12T23:30:18.326Z,17.20
2018-09-12T23:32:46.485Z,17.20
2018-09-12T23:35:15.314Z,17.10
2018-09-12T23:37:43.532Z,17.10
2018-09-12T23:40:12.498Z,17.10
2018-09-12T23:42:40.694Z,17.00
2018-09-12T23:45:08.861Z,16.90
2018-09-12T23:47:37.055Z,16.80
2018-09-12T23:50:05.554Z,16.70
2018-09-12T23:52:33.765Z,16.70
2018-09-12T23:55:01.970Z,16.70
2018-09-12T23:57:30.146Z,16.80
